sensor_id;sensor_type;location;lat;lon;timestamp;P1;durP1;ratioP1;P2;durP2;ratioP2
61254;SDS011;47128;47.530;8.584;2022-09-24T00:01:29;11.32;;;7.45;;
61254;SDS011;47128;47.530;8.584;2022-09-24T00:03:57;13.98;;;7.93;;
61254;SDS011;47128;47.530;8.584;2022-09-24T00:06:25;12.98;;;8.13;;
61254;SDS011;47128;47.530;8.584;2022-09-24T00:08:52;13.10;;;7.55;;
61254;SDS011;47128;47.530;8.584;2022-09-24T00:11:22;12.45;;;7.00;;
61254;SDS011;47128;47.530;8.584;2022-09-24T00:13:50;10.88;;;6.45;;
61254;SDS011;47128;47.530;8.584;2022-09-24T00:16:17;12.27;;;6.75;;
61254;SDS011;47128;47.530;8.584;2022-09-24T00:18:44;13.95;;;7.75;;
61254;SDS011;47128;47.530;8.584;2022-09-24T00:23:49;12.00;;;7.63;;
61254;SDS011;47128;47.530;8.584;2022-09-24T00:26:20;10.63;;;7.35;;
61254;SDS011;47128;47.530;8.584;2022-09-24T00:29:05;13.02;;;6.38;;
61254;SDS011;47128;47.530;8.584;2022-09-24T00:31:32;9.43;;;7.00;;
61254;SDS011;47128;47.530;8.584;2022-09-24T00:33:58;8.70;;;6.15;;
61254;SDS011;47128;47.530;8.584;2022-09-24T00:36:25;8.20;;;6.80;;
61254;SDS011;47128;47.530;8.584;2022-09-24T00:38:52;11.38;;;6.63;;
61254;SDS011;47128;47.530;8.584;2022-09-24T00:41:19;11.15;;;7.07;;
61254;SDS011;47128;47.530;8.584;2022-09-24T00:43:48;9.55;;;5.88;;
61254;SDS011;47128;47.530;8.584;2022-09-24T00:46:17;10.40;;;6.95;;
61254;SDS011;47128;47.530;8.584;2022-09-24T00:48:58;9.05;;;6.40;;
61254;SDS011;47128;47.530;8.584;2022-09-24T00:51:28;12.93;;;7.53;;
61254;SDS011;47128;47.530;8.584;2022-09-24T00:53:57;10.23;;;8.27;;
61254;SDS011;47128;47.530;8.584;2022-09-24T00:56:27;12.40;;;8.70;;
61254;SDS011;47128;47.530;8.584;2022-09-24T00:58:54;17.83;;;9.48;;
61254;SDS011;47128;47.530;8.584;2022-09-24T01:01:25;15.65;;;9.30;;
61254;SDS011;47128;47.530;8.584;2022-09-24T01:03:52;14.77;;;9.07;;
61254;SDS011;47128;47.530;8.584;2022-09-24T01:06:19;18.67;;;9.70;;
61254;SDS011;47128;47.530;8.584;2022-09-24T01:08:45;15.90;;;9.68;;
61254;SDS011;47128;47.530;8.584;2022-09-24T01:19:16;16.15;;;10.38;;
61254;SDS011;47128;47.530;8.584;2022-09-24T01:21:55;18.23;;;11.18;;
61254;SDS011;47128;47.530;8.584;2022-09-24T01:30:06;16.15;;;11.40;;
61254;SDS011;47128;47.530;8.584;2022-09-24T01:32:49;14.32;;;11.57;;
61254;SDS011;47128;47.530;8.584;2022-09-24T01:35:34;17.13;;;12.18;;
61254;SDS011;47128;47.530;8.584;2022-09-24T01:38:11;15.93;;;11.40;;
61254;SDS011;47128;47.530;8.584;2022-09-24T01:40:37;16.20;;;11.23;;
61254;SDS011;47128;47.530;8.584;2022-09-24T01:43:04;14.70;;;11.27;;
61254;SDS011;47128;47.530;8.584;2022-09-24T01:45:34;17.70;;;11.65;;
61254;SDS011;47128;47.530;8.584;2022-09-24T01:48:02;15.52;;;11.07;;
61254;SDS011;47128;47.530;8.584;2022-09-24T01:50:31;16.38;;;12.48;;
61254;SDS011;47128;47.530;8.584;2022-09-24T01:53:07;17.08;;;12.20;;
61254;SDS011;47128;47.530;8.584;2022-09-24T01:55:45;20.60;;;12.35;;
61254;SDS011;47128;47.530;8.584;2022-09-24T01:58:15;17.17;;;13.13;;
61254;SDS011;47128;47.530;8.584;2022-09-24T02:00:52;20.15;;;13.73;;
61254;SDS011;47128;47.530;8.584;2022-09-24T02:03:28;20.95;;;12.38;;
61254;SDS011;47128;47.530;8.584;2022-09-24T02:06:00;21.77;;;13.98;;
61254;SDS011;47128;47.530;8.584;2022-09-24T02:08:39;18.05;;;12.70;;
61254;SDS011;47128;47.530;8.584;2022-09-24T02:11:10;23.73;;;13.05;;
61254;SDS011;47128;47.530;8.584;2022-09-24T02:16:15;20.20;;;13.05;;
61254;SDS011;47128;47.530;8.584;2022-09-24T02:18:46;18.70;;;13.00;;
61254;SDS011;47128;47.530;8.584;2022-09-24T02:21:16;19.50;;;13.32;;
61254;SDS011;47128;47.530;8.584;2022-09-24T02:23:46;19.55;;;14.13;;
61254;SDS011;47128;47.530;8.584;2022-09-24T02:26:19;22.58;;;14.10;;
61254;SDS011;47128;47.530;8.584;2022-09-24T02:28:45;21.33;;;14.32;;
61254;SDS011;47128;47.530;8.584;2022-09-24T02:31:15;20.73;;;14.07;;
61254;SDS011;47128;47.530;8.584;2022-09-24T02:33:54;19.13;;;12.23;;
61254;SDS011;47128;47.530;8.584;2022-09-24T02:36:40;18.48;;;13.88;;
61254;SDS011;47128;47.530;8.584;2022-09-24T02:39:05;17.75;;;12.43;;
61254;SDS011;47128;47.530;8.584;2022-09-24T02:41:31;24.08;;;14.52;;
61254;SDS011;47128;47.530;8.584;2022-09-24T02:43:58;21.02;;;14.52;;
61254;SDS011;47128;47.530;8.584;2022-09-24T02:46:24;24.38;;;13.43;;
61254;SDS011;47128;47.530;8.584;2022-09-24T02:48:49;24.58;;;14.13;;
61254;SDS011;47128;47.530;8.584;2022-09-24T02:51:15;18.52;;;13.30;;
61254;SDS011;47128;47.530;8.584;2022-09-24T02:53:40;17.60;;;12.60;;
61254;SDS011;47128;47.530;8.584;2022-09-24T02:56:06;20.23;;;13.25;;
61254;SDS011;47128;47.530;8.584;2022-09-24T02:58:32;21.60;;;13.40;;
61254;SDS011;47128;47.530;8.584;2022-09-24T03:00:58;17.60;;;12.95;;
61254;SDS011;47128;47.530;8.584;2022-09-24T03:03:24;17.77;;;12.05;;
61254;SDS011;47128;47.530;8.584;2022-09-24T03:05:50;16.33;;;11.98;;
61254;SDS011;47128;47.530;8.584;2022-09-24T03:08:22;16.80;;;12.32;;
61254;SDS011;47128;47.530;8.584;2022-09-24T03:10:49;17.15;;;12.50;;
61254;SDS011;47128;47.530;8.584;2022-09-24T03:13:15;15.40;;;11.18;;
61254;SDS011;47128;47.530;8.584;2022-09-24T03:15:42;16.00;;;12.15;;
61254;SDS011;47128;47.530;8.584;2022-09-24T03:18:09;15.95;;;10.73;;
61254;SDS011;47128;47.530;8.584;2022-09-24T03:20:34;13.57;;;10.55;;
61254;SDS011;47128;47.530;8.584;2022-09-24T03:23:00;14.30;;;11.68;;
61254;SDS011;47128;47.530;8.584;2022-09-24T03:25:26;16.48;;;11.38;;
61254;SDS011;47128;47.530;8.584;2022-09-24T03:27:51;18.70;;;11.90;;
61254;SDS011;47128;47.530;8.584;2022-09-24T03:30:17;18.30;;;11.43;;
61254;SDS011;47128;47.530;8.584;2022-09-24T03:33:01;17.25;;;11.50;;
61254;SDS011;47128;47.530;8.584;2022-09-24T03:35:27;16.40;;;11.35;;
61254;SDS011;47128;47.530;8.584;2022-09-24T03:37:52;16.25;;;12.02;;
61254;SDS011;47128;47.530;8.584;2022-09-24T03:40:18;18.55;;;12.15;;
61254;SDS011;47128;47.530;8.584;2022-09-24T03:42:43;17.27;;;12.50;;
61254;SDS011;47128;47.530;8.584;2022-09-24T03:45:09;16.20;;;11.55;;
61254;SDS011;47128;47.530;8.584;2022-09-24T03:47:35;19.60;;;11.45;;
61254;SDS011;47128;47.530;8.584;2022-09-24T03:50:00;17.38;;;11.23;;
61254;SDS011;47128;47.530;8.584;2022-09-24T03:52:26;15.77;;;11.35;;
61254;SDS011;47128;47.530;8.584;2022-09-24T03:54:52;13.18;;;9.98;;
61254;SDS011;47128;47.530;8.584;2022-09-24T03:57:18;17.45;;;11.75;;
61254;SDS011;47128;47.530;8.584;2022-09-24T03:59:43;12.18;;;10.18;;
61254;SDS011;47128;47.530;8.584;2022-09-24T04:02:10;16.13;;;11.35;;
61254;SDS011;47128;47.530;8.584;2022-09-24T04:04:36;14.48;;;10.82;;
61254;SDS011;47128;47.530;8.584;2022-09-24T04:07:02;14.18;;;9.90;;
61254;SDS011;47128;47.530;8.584;2022-09-24T04:09:28;13.77;;;10.25;;
61254;SDS011;47128;47.530;8.584;2022-09-24T04:11:54;16.27;;;11.02;;
61254;SDS011;47128;47.530;8.584;2022-09-24T04:14:20;17.88;;;11.07;;
61254;SDS011;47128;47.530;8.584;2022-09-24T04:16:46;15.60;;;10.82;;
61254;SDS011;47128;47.530;8.584;2022-09-24T04:19:12;15.02;;;11.20;;
61254;SDS011;47128;47.530;8.584;2022-09-24T04:21:42;19.80;;;11.57;;
61254;SDS011;47128;47.530;8.584;2022-09-24T04:24:08;15.07;;;10.63;;
61254;SDS011;47128;47.530;8.584;2022-09-24T04:26:34;16.23;;;11.27;;
61254;SDS011;47128;47.530;8.584;2022-09-24T04:28:59;18.42;;;12.13;;
61254;SDS011;47128;47.530;8.584;2022-09-24T04:31:25;15.55;;;10.77;;
61254;SDS011;47128;47.530;8.584;2022-09-24T04:33:51;16.95;;;12.30;;
61254;SDS011;47128;47.530;8.584;2022-09-24T04:36:17;19.27;;;12.30;;
61254;SDS011;47128;47.530;8.584;2022-09-24T04:38:44;16.77;;;11.98;;
61254;SDS011;47128;47.530;8.584;2022-09-24T04:41:13;14.77;;;11.30;;
61254;SDS011;47128;47.530;8.584;2022-09-24T04:43:42;16.20;;;12.00;;
61254;SDS011;47128;47.530;8.584;2022-09-24T04:46:10;14.60;;;10.73;;
61254;SDS011;47128;47.530;8.584;2022-09-24T04:48:36;19.20;;;11.65;;
61254;SDS011;47128;47.530;8.584;2022-09-24T04:51:03;13.30;;;10.90;;
61254;SDS011;47128;47.530;8.584;2022-09-24T04:53:33;16.08;;;11.40;;
61254;SDS011;47128;47.530;8.584;2022-09-24T04:56:01;18.00;;;12.00;;
61254;SDS011;47128;47.530;8.584;2022-09-24T04:58:30;16.08;;;10.35;;
61254;SDS011;47128;47.530;8.584;2022-09-24T05:00:56;17.48;;;12.07;;
61254;SDS011;47128;47.530;8.584;2022-09-24T05:03:21;19.30;;;12.35;;
61254;SDS011;47128;47.530;8.584;2022-09-24T05:05:47;15.95;;;12.05;;
61254;SDS011;47128;47.530;8.584;2022-09-24T05:08:14;19.42;;;12.48;;
61254;SDS011;47128;47.530;8.584;2022-09-24T05:10:41;18.27;;;13.15;;
61254;SDS011;47128;47.530;8.584;2022-09-24T05:13:07;18.13;;;12.88;;
61254;SDS011;47128;47.530;8.584;2022-09-24T05:15:35;19.90;;;11.70;;
61254;SDS011;47128;47.530;8.584;2022-09-24T05:18:01;18.23;;;12.93;;
61254;SDS011;47128;47.530;8.584;2022-09-24T05:20:27;16.70;;;12.27;;
61254;SDS011;47128;47.530;8.584;2022-09-24T05:22:52;18.65;;;12.43;;
61254;SDS011;47128;47.530;8.584;2022-09-24T05:25:19;17.90;;;11.90;;
61254;SDS011;47128;47.530;8.584;2022-09-24T05:27:48;19.08;;;13.00;;
61254;SDS011;47128;47.530;8.584;2022-09-24T05:30:15;17.50;;;12.07;;
61254;SDS011;47128;47.530;8.584;2022-09-24T05:32:43;15.88;;;11.30;;
61254;SDS011;47128;47.530;8.584;2022-09-24T05:35:08;20.38;;;12.48;;
61254;SDS011;47128;47.530;8.584;2022-09-24T05:37:35;22.95;;;12.75;;
61254;SDS011;47128;47.530;8.584;2022-09-24T05:40:02;19.63;;;12.48;;
61254;SDS011;47128;47.530;8.584;2022-09-24T05:42:47;17.58;;;11.82;;
61254;SDS011;47128;47.530;8.584;2022-09-24T05:45:12;20.38;;;13.18;;
61254;SDS011;47128;47.530;8.584;2022-09-24T05:47:41;18.95;;;12.40;;
61254;SDS011;47128;47.530;8.584;2022-09-24T05:50:08;18.02;;;12.02;;
61254;SDS011;47128;47.530;8.584;2022-09-24T05:52:33;18.50;;;12.50;;
61254;SDS011;47128;47.530;8.584;2022-09-24T05:54:59;17.70;;;12.57;;
61254;SDS011;47128;47.530;8.584;2022-09-24T05:57:24;19.17;;;12.95;;
61254;SDS011;47128;47.530;8.584;2022-09-24T05:59:50;19.85;;;12.63;;
61254;SDS011;47128;47.530;8.584;2022-09-24T06:02:17;17.98;;;11.38;;
61254;SDS011;47128;47.530;8.584;2022-09-24T06:04:42;18.52;;;12.50;;
61254;SDS011;47128;47.530;8.584;2022-09-24T06:07:08;15.38;;;11.38;;
61254;SDS011;47128;47.530;8.584;2022-09-24T06:09:35;17.92;;;12.40;;
61254;SDS011;47128;47.530;8.584;2022-09-24T06:12:01;16.60;;;11.65;;
61254;SDS011;47128;47.530;8.584;2022-09-24T06:14:27;18.52;;;12.85;;
61254;SDS011;47128;47.530;8.584;2022-09-24T06:16:52;17.98;;;11.82;;
61254;SDS011;47128;47.530;8.584;2022-09-24T06:19:18;18.05;;;12.57;;
61254;SDS011;47128;47.530;8.584;2022-09-24T06:21:44;16.55;;;12.05;;
61254;SDS011;47128;47.530;8.584;2022-09-24T06:24:09;21.42;;;12.35;;
61254;SDS011;47128;47.530;8.584;2022-09-24T06:26:36;19.13;;;12.07;;
61254;SDS011;47128;47.530;8.584;2022-09-24T06:29:02;14.32;;;10.52;;
61254;SDS011;47128;47.530;8.584;2022-09-24T06:31:28;15.18;;;10.77;;
61254;SDS011;47128;47.530;8.584;2022-09-24T06:33:53;14.15;;;10.60;;
61254;SDS011;47128;47.530;8.584;2022-09-24T06:36:19;16.90;;;11.38;;
61254;SDS011;47128;47.530;8.584;2022-09-24T06:38:48;17.48;;;12.00;;
61254;SDS011;47128;47.530;8.584;2022-09-24T06:41:15;15.18;;;10.88;;
61254;SDS011;47128;47.530;8.584;2022-09-24T06:43:41;12.90;;;9.52;;
61254;SDS011;47128;47.530;8.584;2022-09-24T06:46:06;14.45;;;10.13;;
61254;SDS011;47128;47.530;8.584;2022-09-24T06:48:32;16.00;;;11.73;;
61254;SDS011;47128;47.530;8.584;2022-09-24T06:50:57;17.67;;;11.05;;
61254;SDS011;47128;47.530;8.584;2022-09-24T06:53:24;14.27;;;9.73;;
61254;SDS011;47128;47.530;8.584;2022-09-24T06:55:50;15.43;;;10.20;;
61254;SDS011;47128;47.530;8.584;2022-09-24T06:58:19;13.95;;;9.68;;
61254;SDS011;47128;47.530;8.584;2022-09-24T07:00:55;16.45;;;10.43;;
61254;SDS011;47128;47.530;8.584;2022-09-24T07:03:22;11.23;;;8.85;;
61254;SDS011;47128;47.530;8.584;2022-09-24T07:05:49;14.75;;;8.93;;
61254;SDS011;47128;47.530;8.584;2022-09-24T07:08:15;11.45;;;8.70;;
61254;SDS011;47128;47.530;8.584;2022-09-24T07:10:42;15.45;;;9.50;;
61254;SDS011;47128;47.530;8.584;2022-09-24T07:13:13;14.23;;;9.27;;
61254;SDS011;47128;47.530;8.584;2022-09-24T07:15:40;14.85;;;9.60;;
61254;SDS011;47128;47.530;8.584;2022-09-24T07:18:06;15.07;;;10.10;;
61254;SDS011;47128;47.530;8.584;2022-09-24T07:20:32;12.57;;;9.45;;
61254;SDS011;47128;47.530;8.584;2022-09-24T07:23:00;15.23;;;9.40;;
61254;SDS011;47128;47.530;8.584;2022-09-24T07:25:27;14.32;;;9.57;;
61254;SDS011;47128;47.530;8.584;2022-09-24T07:27:53;13.40;;;9.73;;
61254;SDS011;47128;47.530;8.584;2022-09-24T07:30:21;11.48;;;8.35;;
61254;SDS011;47128;47.530;8.584;2022-09-24T07:32:46;10.23;;;7.70;;
61254;SDS011;47128;47.530;8.584;2022-09-24T07:35:17;12.40;;;8.60;;
61254;SDS011;47128;47.530;8.584;2022-09-24T07:37:45;11.45;;;7.07;;
61254;SDS011;47128;47.530;8.584;2022-09-24T07:40:10;11.93;;;8.77;;
61254;SDS011;47128;47.530;8.584;2022-09-24T07:42:36;14.93;;;8.43;;
61254;SDS011;47128;47.530;8.584;2022-09-24T07:45:03;13.57;;;9.15;;
61254;SDS011;47128;47.530;8.584;2022-09-24T07:47:29;12.95;;;8.45;;
61254;SDS011;47128;47.530;8.584;2022-09-24T07:49:54;10.18;;;7.35;;
61254;SDS011;47128;47.530;8.584;2022-09-24T07:52:20;9.00;;;7.53;;
61254;SDS011;47128;47.530;8.584;2022-09-24T07:54:46;11.10;;;6.40;;
61254;SDS011;47128;47.530;8.584;2022-09-24T07:57:11;11.75;;;7.43;;
61254;SDS011;47128;47.530;8.584;2022-09-24T07:59:37;10.07;;;7.20;;
61254;SDS011;47128;47.530;8.584;2022-09-24T08:02:07;11.63;;;7.85;;
61254;SDS011;47128;47.530;8.584;2022-09-24T08:04:39;10.00;;;6.65;;
61254;SDS011;47128;47.530;8.584;2022-09-24T08:07:04;9.93;;;6.95;;
61254;SDS011;47128;47.530;8.584;2022-09-24T08:09:30;12.55;;;7.65;;
61254;SDS011;47128;47.530;8.584;2022-09-24T08:11:57;8.32;;;6.05;;
61254;SDS011;47128;47.530;8.584;2022-09-24T08:14:22;9.65;;;7.32;;
61254;SDS011;47128;47.530;8.584;2022-09-24T08:16:48;11.15;;;7.45;;
61254;SDS011;47128;47.530;8.584;2022-09-24T08:19:14;12.32;;;7.50;;
61254;SDS011;47128;47.530;8.584;2022-09-24T08:21:41;9.68;;;7.20;;
61254;SDS011;47128;47.530;8.584;2022-09-24T08:24:06;12.63;;;7.25;;
61254;SDS011;47128;47.530;8.584;2022-09-24T08:26:32;11.07;;;7.97;;
61254;SDS011;47128;47.530;8.584;2022-09-24T08:28:58;12.88;;;8.02;;
61254;SDS011;47128;47.530;8.584;2022-09-24T08:31:23;13.77;;;8.40;;
61254;SDS011;47128;47.530;8.584;2022-09-24T08:33:49;11.85;;;7.53;;
61254;SDS011;47128;47.530;8.584;2022-09-24T08:36:15;10.98;;;8.32;;
61254;SDS011;47128;47.530;8.584;2022-09-24T08:38:40;12.63;;;8.45;;
61254;SDS011;47128;47.530;8.584;2022-09-24T08:47:09;11.82;;;8.32;;
61254;SDS011;47128;47.530;8.584;2022-09-24T08:55:09;13.20;;;8.45;;
61254;SDS011;47128;47.530;8.584;2022-09-24T08:57:57;12.85;;;9.65;;
61254;SDS011;47128;47.530;8.584;2022-09-24T09:00:42;12.57;;;8.68;;
61254;SDS011;47128;47.530;8.584;2022-09-24T09:03:24;11.02;;;8.05;;
61254;SDS011;47128;47.530;8.584;2022-09-24T09:06:04;14.60;;;9.25;;
61254;SDS011;47128;47.530;8.584;2022-09-24T09:08:40;12.57;;;8.35;;
61254;SDS011;47128;47.530;8.584;2022-09-24T09:11:18;14.02;;;9.73;;
61254;SDS011;47128;47.530;8.584;2022-09-24T09:13:50;12.88;;;9.55;;
61254;SDS011;47128;47.530;8.584;2022-09-24T09:16:28;14.77;;;11.10;;
61254;SDS011;47128;47.530;8.584;2022-09-24T09:19:04;13.18;;;8.80;;
61254;SDS011;47128;47.530;8.584;2022-09-24T09:21:42;13.18;;;9.70;;
61254;SDS011;47128;47.530;8.584;2022-09-24T09:24:26;13.45;;;10.75;;
61254;SDS011;47128;47.530;8.584;2022-09-24T09:27:04;16.85;;;10.82;;
61254;SDS011;47128;47.530;8.584;2022-09-24T09:29:36;17.05;;;11.20;;
61254;SDS011;47128;47.530;8.584;2022-09-24T09:32:12;14.98;;;10.48;;
61254;SDS011;47128;47.530;8.584;2022-09-24T09:37:50;14.57;;;10.63;;
61254;SDS011;47128;47.530;8.584;2022-09-24T09:41:11;18.17;;;11.57;;
61254;SDS011;47128;47.530;8.584;2022-09-24T09:43:18;14.70;;;11.20;;
61254;SDS011;47128;47.530;8.584;2022-09-24T09:48:45;17.77;;;11.50;;
61254;SDS011;47128;47.530;8.584;2022-09-24T09:51:17;14.98;;;10.23;;
61254;SDS011;47128;47.530;8.584;2022-09-24T09:53:54;13.50;;;10.13;;
61254;SDS011;47128;47.530;8.584;2022-09-24T09:56:32;13.00;;;9.43;;
61254;SDS011;47128;47.530;8.584;2022-09-24T10:01:39;13.13;;;9.27;;
61254;SDS011;47128;47.530;8.584;2022-09-24T10:07:07;13.07;;;10.15;;
61254;SDS011;47128;47.530;8.584;2022-09-24T10:09:34;12.75;;;10.32;;
61254;SDS011;47128;47.530;8.584;2022-09-24T10:12:20;13.15;;;8.95;;
61254;SDS011;47128;47.530;8.584;2022-09-24T10:15:03;10.07;;;7.90;;
61254;SDS011;47128;47.530;8.584;2022-09-24T10:17:40;11.25;;;7.40;;
61254;SDS011;47128;47.530;8.584;2022-09-24T10:20:08;9.45;;;6.68;;
61254;SDS011;47128;47.530;8.584;2022-09-24T10:22:54;10.48;;;6.95;;
61254;SDS011;47128;47.530;8.584;2022-09-24T10:25:30;10.40;;;7.03;;
61254;SDS011;47128;47.530;8.584;2022-09-24T10:27:59;10.85;;;7.50;;
61254;SDS011;47128;47.530;8.584;2022-09-24T10:30:48;7.05;;;5.07;;
61254;SDS011;47128;47.530;8.584;2022-09-24T10:33:20;7.07;;;5.32;;
61254;SDS011;47128;47.530;8.584;2022-09-24T10:35:47;8.13;;;5.78;;
61254;SDS011;47128;47.530;8.584;2022-09-24T10:38:14;7.45;;;5.75;;
61254;SDS011;47128;47.530;8.584;2022-09-24T10:40:48;7.40;;;5.30;;
61254;SDS011;47128;47.530;8.584;2022-09-24T10:43:18;7.38;;;5.45;;
61254;SDS011;47128;47.530;8.584;2022-09-24T10:48:20;7.25;;;5.75;;
61254;SDS011;47128;47.530;8.584;2022-09-24T10:53:28;8.52;;;6.47;;
61254;SDS011;47128;47.530;8.584;2022-09-24T10:56:39;5.28;;;4.57;;
61254;SDS011;47128;47.530;8.584;2022-09-24T11:21:11;6.22;;;3.95;;
61254;SDS011;47128;47.530;8.584;2022-09-24T11:26:49;5.13;;;4.10;;
61254;SDS011;47128;47.530;8.584;2022-09-24T11:29:58;4.93;;;4.10;;
61254;SDS011;47128;47.530;8.584;2022-09-24T11:32:42;5.97;;;3.83;;
61254;SDS011;47128;47.530;8.584;2022-09-24T11:35:25;5.35;;;3.67;;
61254;SDS011;47128;47.530;8.584;2022-09-24T11:38:01;5.15;;;3.47;;
61254;SDS011;47128;47.530;8.584;2022-09-24T11:40:51;4.47;;;3.42;;
61254;SDS011;47128;47.530;8.584;2022-09-24T11:55:29;13.10;;;8.55;;
61254;SDS011;47128;47.530;8.584;2022-09-24T12:00:33;22.35;;;13.02;;
61254;SDS011;47128;47.530;8.584;2022-09-24T12:03:11;14.07;;;8.63;;
61254;SDS011;47128;47.530;8.584;2022-09-24T12:05:45;14.43;;;8.05;;
61254;SDS011;47128;47.530;8.584;2022-09-24T12:08:22;10.20;;;7.40;;
61254;SDS011;47128;47.530;8.584;2022-09-24T12:10:54;10.77;;;6.32;;
61254;SDS011;47128;47.530;8.584;2022-09-24T12:13:39;6.93;;;5.25;;
61254;SDS011;47128;47.530;8.584;2022-09-24T12:16:13;6.78;;;4.75;;
61254;SDS011;47128;47.530;8.584;2022-09-24T12:21:35;8.20;;;4.25;;
61254;SDS011;47128;47.530;8.584;2022-09-24T12:24:09;5.88;;;4.38;;
61254;SDS011;47128;47.530;8.584;2022-09-24T12:26:55;7.85;;;4.20;;
61254;SDS011;47128;47.530;8.584;2022-09-24T12:35:22;7.33;;;4.67;;
61254;SDS011;47128;47.530;8.584;2022-09-24T12:38:11;6.00;;;4.38;;
61254;SDS011;47128;47.530;8.584;2022-09-24T12:46:17;2.83;;;2.50;;
61254;SDS011;47128;47.530;8.584;2022-09-24T12:48:46;3.63;;;2.70;;
61254;SDS011;47128;47.530;8.584;2022-09-24T12:51:13;7.35;;;3.03;;
61254;SDS011;47128;47.530;8.584;2022-09-24T12:53:41;5.97;;;3.67;;
61254;SDS011;47128;47.530;8.584;2022-09-24T12:56:21;3.65;;;3.00;;
61254;SDS011;47128;47.530;8.584;2022-09-24T12:58:53;8.07;;;3.50;;
61254;SDS011;47128;47.530;8.584;2022-09-24T13:04:21;5.05;;;3.17;;
61254;SDS011;47128;47.530;8.584;2022-09-24T13:06:50;14.25;;;8.73;;
61254;SDS011;47128;47.530;8.584;2022-09-24T13:12:03;6.00;;;4.22;;
61254;SDS011;47128;47.530;8.584;2022-09-24T13:14:48;9.63;;;7.70;;
61254;SDS011;47128;47.530;8.584;2022-09-24T13:17:26;10.05;;;6.40;;
61254;SDS011;47128;47.530;8.584;2022-09-24T13:19:57;6.10;;;4.60;;
61254;SDS011;47128;47.530;8.584;2022-09-24T13:22:30;10.50;;;8.50;;
61254;SDS011;47128;47.530;8.584;2022-09-24T13:27:34;8.00;;;5.90;;
61254;SDS011;47128;47.530;8.584;2022-09-24T13:30:12;5.25;;;4.28;;
61254;SDS011;47128;47.530;8.584;2022-09-24T13:32:56;5.47;;;4.20;;
61254;SDS011;47128;47.530;8.584;2022-09-24T13:35:51;12.43;;;9.60;;
61254;SDS011;47128;47.530;8.584;2022-09-24T13:38:35;11.40;;;8.52;;
61254;SDS011;47128;47.530;8.584;2022-09-24T13:41:13;7.07;;;4.88;;
61254;SDS011;47128;47.530;8.584;2022-09-24T13:44:04;7.07;;;4.57;;
61254;SDS011;47128;47.530;8.584;2022-09-24T13:46:36;5.10;;;3.80;;
61254;SDS011;47128;47.530;8.584;2022-09-24T13:49:09;8.35;;;4.00;;
61254;SDS011;47128;47.530;8.584;2022-09-24T13:54:12;5.55;;;3.90;;
61254;SDS011;47128;47.530;8.584;2022-09-24T13:57:10;5.30;;;4.03;;
61254;SDS011;47128;47.530;8.584;2022-09-24T13:59:43;7.78;;;4.60;;
61254;SDS011;47128;47.530;8.584;2022-09-24T14:02:26;9.43;;;4.65;;
61254;SDS011;47128;47.530;8.584;2022-09-24T14:05:01;4.82;;;4.00;;
61254;SDS011;47128;47.530;8.584;2022-09-24T14:07:28;5.85;;;3.83;;
61254;SDS011;47128;47.530;8.584;2022-09-24T14:10:00;4.82;;;3.50;;
61254;SDS011;47128;47.530;8.584;2022-09-24T14:12:30;5.80;;;4.00;;
61254;SDS011;47128;47.530;8.584;2022-09-24T14:14:55;4.07;;;3.10;;
61254;SDS011;47128;47.530;8.584;2022-09-24T14:17:24;3.92;;;3.25;;
61254;SDS011;47128;47.530;8.584;2022-09-24T14:19:53;4.90;;;3.20;;
61254;SDS011;47128;47.530;8.584;2022-09-24T14:22:32;4.30;;;2.88;;
61254;SDS011;47128;47.530;8.584;2022-09-24T14:25:08;3.78;;;2.80;;
61254;SDS011;47128;47.530;8.584;2022-09-24T14:27:41;3.85;;;2.60;;
61254;SDS011;47128;47.530;8.584;2022-09-24T14:30:16;4.05;;;2.72;;
61254;SDS011;47128;47.530;8.584;2022-09-24T14:32:48;2.58;;;2.30;;
61254;SDS011;47128;47.530;8.584;2022-09-24T14:35:27;4.27;;;2.70;;
61254;SDS011;47128;47.530;8.584;2022-09-24T14:38:02;2.72;;;2.40;;
61254;SDS011;47128;47.530;8.584;2022-09-24T14:40:42;3.75;;;2.30;;
61254;SDS011;47128;47.530;8.584;2022-09-24T14:43:17;2.65;;;2.05;;
61254;SDS011;47128;47.530;8.584;2022-09-24T14:45:59;7.85;;;2.65;;
61254;SDS011;47128;47.530;8.584;2022-09-24T14:48:28;3.88;;;2.70;;
61254;SDS011;47128;47.530;8.584;2022-09-24T14:51:00;2.45;;;2.10;;
61254;SDS011;47128;47.530;8.584;2022-09-24T14:53:28;3.03;;;2.40;;
61254;SDS011;47128;47.530;8.584;2022-09-24T14:55:59;2.35;;;2.00;;
61254;SDS011;47128;47.530;8.584;2022-09-24T14:58:32;3.85;;;2.40;;
61254;SDS011;47128;47.530;8.584;2022-09-24T15:01:04;4.18;;;2.60;;
61254;SDS011;47128;47.530;8.584;2022-09-24T15:06:19;3.97;;;1.88;;
61254;SDS011;47128;47.530;8.584;2022-09-24T15:11:33;4.35;;;2.47;;
61254;SDS011;47128;47.530;8.584;2022-09-24T15:16:43;4.65;;;2.03;;
61254;SDS011;47128;47.530;8.584;2022-09-24T15:19:18;2.30;;;1.85;;
61254;SDS011;47128;47.530;8.584;2022-09-24T15:21:50;3.05;;;2.00;;
61254;SDS011;47128;47.530;8.584;2022-09-24T15:24:16;3.42;;;2.55;;
61254;SDS011;47128;47.530;8.584;2022-09-24T15:26:45;3.17;;;2.10;;
61254;SDS011;47128;47.530;8.584;2022-09-24T15:29:19;3.22;;;2.17;;
61254;SDS011;47128;47.530;8.584;2022-09-24T15:31:52;2.92;;;2.10;;
61254;SDS011;47128;47.530;8.584;2022-09-24T15:34:19;2.88;;;2.28;;
61254;SDS011;47128;47.530;8.584;2022-09-24T15:37:03;2.90;;;2.35;;
61254;SDS011;47128;47.530;8.584;2022-09-24T15:39:29;5.40;;;3.13;;
61254;SDS011;47128;47.530;8.584;2022-09-24T15:41:55;6.07;;;3.78;;
61254;SDS011;47128;47.530;8.584;2022-09-24T15:44:22;19.30;;;10.75;;
61254;SDS011;47128;47.530;8.584;2022-09-24T15:46:49;9.77;;;5.53;;
61254;SDS011;47128;47.530;8.584;2022-09-24T15:49:19;17.20;;;11.85;;
61254;SDS011;47128;47.530;8.584;2022-09-24T15:54:52;8.15;;;5.55;;
61254;SDS011;47128;47.530;8.584;2022-09-24T15:57:19;8.88;;;6.63;;
61254;SDS011;47128;47.530;8.584;2022-09-24T15:59:46;7.65;;;5.97;;
61254;SDS011;47128;47.530;8.584;2022-09-24T16:02:21;10.55;;;4.78;;
61254;SDS011;47128;47.530;8.584;2022-09-24T16:04:52;6.63;;;5.22;;
61254;SDS011;47128;47.530;8.584;2022-09-24T16:07:18;6.53;;;5.45;;
61254;SDS011;47128;47.530;8.584;2022-09-24T16:09:44;5.18;;;3.45;;
61254;SDS011;47128;47.530;8.584;2022-09-24T16:12:17;5.63;;;3.72;;
61254;SDS011;47128;47.530;8.584;2022-09-24T16:14:44;6.75;;;5.10;;
61254;SDS011;47128;47.530;8.584;2022-09-24T16:17:12;5.13;;;4.53;;
61254;SDS011;47128;47.530;8.584;2022-09-24T16:19:37;5.55;;;4.07;;
61254;SDS011;47128;47.530;8.584;2022-09-24T16:22:03;6.35;;;3.70;;
61254;SDS011;47128;47.530;8.584;2022-09-24T16:24:31;4.28;;;3.30;;
61254;SDS011;47128;47.530;8.584;2022-09-24T16:26:57;5.97;;;3.78;;
61254;SDS011;47128;47.530;8.584;2022-09-24T16:29:25;5.53;;;3.72;;
61254;SDS011;47128;47.530;8.584;2022-09-24T16:31:51;5.85;;;3.67;;
61254;SDS011;47128;47.530;8.584;2022-09-24T16:36:47;4.82;;;3.97;;
61254;SDS011;47128;47.530;8.584;2022-09-24T16:39:12;6.28;;;4.10;;
61254;SDS011;47128;47.530;8.584;2022-09-24T16:41:39;6.50;;;3.45;;
61254;SDS011;47128;47.530;8.584;2022-09-24T16:44:05;8.82;;;3.60;;
61254;SDS011;47128;47.530;8.584;2022-09-24T16:46:31;5.80;;;4.15;;
61254;SDS011;47128;47.530;8.584;2022-09-24T16:48:58;5.82;;;4.43;;
61254;SDS011;47128;47.530;8.584;2022-09-24T16:51:24;9.70;;;5.00;;
61254;SDS011;47128;47.530;8.584;2022-09-24T16:53:57;12.55;;;6.35;;
61254;SDS011;47128;47.530;8.584;2022-09-24T16:56:22;5.50;;;4.22;;
61254;SDS011;47128;47.530;8.584;2022-09-24T16:58:48;7.43;;;4.90;;